Time;durP1;ratioP1;P1;durP2;ratioP2;P2;SDS_P1;SDS_P2;PMS_P1;PMS_P2;Temp;Humidity;BMP_temperature;BMP_pressure;BME280_temperature;BME280_humidity;BME280_pressure;Samples;Min_cycle;Max_cycle;Signal;HPM_P1;HPM_P2
2022/04/24 00:00:11;;;;;;;0.68;0.65;;;12.70;56.00;;;;;;5114680;28;20503;-72
2022/04/24 00:02:37;;;;;;;0.82;0.75;;;12.60;55.90;;;;;;5114659;28;20549;-72
2022/04/24 00:05:05;;;;;;;0.90;0.70;;;12.60;55.90;;;;;;5114468;28;20039;-72
2022/04/24 00:07:31;;;;;;;1.40;1.00;;;12.60;56.00;;;;;;5114924;28;20597;-73
2022/04/24 00:09:57;;;;;;;1.17;0.85;;;12.60;56.00;;;;;;5114529;28;20040;-72
2022/04/24 00:12:24;;;;;;;1.00;1.00;;;12.60;56.00;;;;;;5114491;28;20455;-73
2022/04/24 00:14:50;;;;;;;2.10;0.80;;;12.50;56.00;;;;;;5096016;28;20049;-73
2022/04/24 00:17:20;;;;;;;0.75;0.63;;;12.60;56.10;;;;;;5114024;28;20086;-72
2022/04/24 00:19:46;;;;;;;0.63;0.63;;;12.50;56.10;;;;;;5114400;28;20044;-72
2022/04/24 00:22:13;;;;;;;1.23;0.80;;;12.40;56.80;;;;;;5114075;28;20036;-72
2022/04/24 00:24:39;;;;;;;0.73;0.70;;;12.40;56.30;;;;;;5078903;28;20484;-72
2022/04/24 00:27:07;;;;;;;0.93;0.82;;;12.30;56.40;;;;;;5114118;28;20039;-72
2022/04/24 00:29:34;;;;;;;1.38;0.88;;;12.40;56.50;;;;;;5114106;28;20043;-73
2022/04/24 00:32:01;;;;;;;0.75;0.75;;;12.30;56.50;;;;;;5113834;28;20039;-72
2022/04/24 00:34:27;;;;;;;1.13;0.82;;;12.20;56.60;;;;;;5113857;28;20036;-72
2022/04/24 00:36:53;;;;;;;1.20;0.90;;;12.10;56.60;;;;;;5095996;28;20119;-72
2022/04/24 00:39:20;;;;;;;1.27;0.85;;;12.10;56.80;;;;;;5113753;28;20043;-72
2022/04/24 00:41:49;;;;;;;0.90;0.80;;;12.10;56.80;;;;;;5113823;28;20035;-72
2022/04/24 00:44:17;;;;;;;1.08;0.88;;;12.10;56.90;;;;;;5113466;28;20469;-72
2022/04/24 00:46:51;;;;;;;1.17;0.90;;;12.00;56.90;;;;;;5114028;28;20027;-72
2022/04/24 00:49:18;;;;;;;0.93;0.70;;;12.00;56.90;;;;;;5095538;28;20442;-72
2022/04/24 00:51:44;;;;;;;1.33;0.98;;;12.00;56.90;;;;;;5113979;28;20093;-72
2022/04/24 00:54:12;;;;;;;0.80;0.70;;;12.00;56.90;;;;;;5113537;28;20084;-72
2022/04/24 00:56:40;;;;;;;1.55;1.00;;;11.90;56.90;;;;;;5114048;28;20044;-71
2022/04/24 00:59:08;;;;;;;0.70;0.70;;;11.90;57.00;;;;;;5095736;28;20126;-74
2022/04/24 01:01:36;;;;;;;1.67;0.90;;;11.90;57.10;;;;;;5113278;28;20480;-74
2022/04/24 01:04:04;;;;;;;1.65;1.00;;;11.80;57.10;;;;;;5094318;28;20515;-71
2022/04/24 01:06:40;;;;;;;1.00;0.90;;;11.80;57.20;;;;;;5113774;28;20483;-74
2022/04/24 01:09:17;;;;;;;0.95;0.85;;;11.70;57.20;;;;;;5094199;28;20052;-72
2022/04/24 01:11:46;;;;;;;1.50;1.10;;;11.80;57.30;;;;;;5113863;28;20482;-71
2022/04/24 01:14:13;;;;;;;0.98;0.85;;;11.70;57.30;;;;;;5113931;28;20126;-71
2022/04/24 01:16:40;;;;;;;1.30;0.98;;;11.60;57.30;;;;;;5113578;28;20096;-71
2022/04/24 01:19:06;;;;;;;1.60;1.10;;;11.70;57.40;;;;;;5113238;28;20046;-71
2022/04/24 01:21:33;;;;;;;0.98;0.88;;;11.60;57.40;;;;;;5113195;28;20036;-71
2022/04/24 01:23:59;;;;;;;2.13;1.15;;;11.60;57.50;;;;;;5113316;28;20400;-71
2022/04/24 01:26:26;;;;;;;1.33;1.00;;;11.60;57.60;;;;;;5094672;28;20489;-71
2022/04/24 01:28:52;;;;;;;1.20;1.10;;;11.60;57.70;;;;;;5078048;28;20127;-71
2022/04/24 01:31:19;;;;;;;1.27;1.13;;;11.60;57.80;;;;;;5113448;28;20032;-71
2022/04/24 01:33:45;;;;;;;1.20;1.00;;;11.50;57.70;;;;;;5094845;28;20044;-70
2022/04/24 01:36:12;;;;;;;1.02;0.93;;;11.50;57.90;;;;;;5095285;28;20427;-71
2022/04/24 01:38:40;;;;;;;1.38;1.17;;;11.50;58.00;;;;;;5113039;28;20042;-71
2022/04/24 01:41:07;;;;;;;1.35;1.00;;;11.40;57.90;;;;;;5095250;28;20119;-72
2022/04/24 01:43:33;;;;;;;1.63;1.10;;;11.50;57.90;;;;;;5093593;28;20055;-72
2022/04/24 01:45:59;;;;;;;0.93;0.90;;;11.40;58.00;;;;;;5113057;28;20126;-72
2022/04/24 01:48:25;;;;;;;1.10;1.00;;;11.40;58.10;;;;;;5112745;28;20066;-71
2022/04/24 01:50:53;;;;;;;1.75;1.20;;;11.40;58.80;;;;;;5112689;28;20393;-71
2022/04/24 01:53:20;;;;;;;1.35;1.13;;;11.30;58.20;;;;;;5112912;28;20043;-72
2022/04/24 01:55:47;;;;;;;1.17;1.00;;;11.30;58.30;;;;;;5111929;28;20035;-72
2022/04/24 01:58:13;;;;;;;1.42;1.10;;;11.30;58.40;;;;;;5094555;28;20042;-72
2022/04/24 02:00:39;;;;;;;1.70;1.20;;;11.30;58.50;;;;;;5112879;28;20028;-72
2022/04/24 02:03:05;;;;;;;0.90;0.88;;;11.30;58.50;;;;;;5094444;28;20158;-72
2022/04/24 02:05:31;;;;;;;1.55;1.10;;;11.30;59.20;;;;;;5113257;28;20031;-72
2022/04/24 02:07:58;;;;;;;1.50;1.02;;;11.20;58.70;;;;;;5113125;28;20197;-71
2022/04/24 02:10:24;;;;;;;1.80;1.10;;;11.20;58.70;;;;;;5112552;28;20118;-72
2022/04/24 02:12:50;;;;;;;1.30;1.00;;;11.20;58.80;;;;;;5112705;28;20088;-72
2022/04/24 02:15:17;;;;;;;1.60;1.10;;;11.10;58.90;;;;;;5094524;28;20134;-72
2022/04/24 02:17:43;;;;;;;1.30;1.10;;;11.10;59.00;;;;;;5112609;28;20036;-72
2022/04/24 02:20:10;;;;;;;1.13;1.00;;;11.00;59.00;;;;;;5112849;28;20039;-72
2022/04/24 02:22:36;;;;;;;1.20;0.93;;;11.00;59.20;;;;;;5077541;28;20074;-72
2022/04/24 02:25:04;;;;;;;1.33;1.00;;;11.00;59.30;;;;;;5112182;28;20070;-73
2022/04/24 02:27:30;;;;;;;2.28;1.20;;;10.90;59.40;;;;;;5093909;28;20558;-73
2022/04/24 02:29:56;;;;;;;1.83;1.10;;;10.90;59.50;;;;;;5093605;28;20097;-73
2022/04/24 02:32:22;;;;;;;1.90;1.30;;;10.90;59.60;;;;;;5112503;28;20032;-72
2022/04/24 02:34:48;;;;;;;1.42;1.13;;;10.80;59.60;;;;;;5093851;28;20477;-73
2022/04/24 02:37:14;;;;;;;1.77;1.08;;;10.80;59.70;;;;;;5094175;28;20533;-73
2022/04/24 02:39:40;;;;;;;1.65;1.25;;;10.80;59.80;;;;;;5112192;28;20085;-71
2022/04/24 02:42:05;;;;;;;1.20;1.00;;;10.80;60.00;;;;;;5111884;28;20074;-72
2022/04/24 02:44:31;;;;;;;1.33;1.10;;;10.70;60.00;;;;;;5111892;28;20075;-72
2022/04/24 02:46:57;;;;;;;1.10;0.95;;;10.70;60.00;;;;;;5076841;28;20036;-72
2022/04/24 02:49:24;;;;;;;1.08;0.90;;;10.60;60.10;;;;;;5111923;28;20143;-71
2022/04/24 02:51:50;;;;;;;1.40;1.00;;;10.70;60.30;;;;;;5111893;28;20039;-71
2022/04/24 02:54:15;;;;;;;1.13;1.00;;;10.60;60.30;;;;;;5092685;28;20401;-72
2022/04/24 02:56:41;;;;;;;2.00;0.98;;;10.60;60.40;;;;;;5111699;28;20044;-72
2022/04/24 02:59:07;;;;;;;1.52;1.17;;;10.60;60.60;;;;;;5111822;28;20070;-72
2022/04/24 03:01:34;;;;;;;1.33;0.98;;;10.60;60.60;;;;;;5076823;28;20481;-72
2022/04/24 03:04:00;;;;;;;0.80;0.80;;;10.50;60.60;;;;;;5112172;28;20042;-72
2022/04/24 03:06:26;;;;;;;2.13;1.20;;;10.50;60.70;;;;;;5093451;28;20051;-72
2022/04/24 03:08:51;;;;;;;1.00;0.85;;;10.50;60.80;;;;;;5115248;28;20040;-73
2022/04/24 03:11:17;;;;;;;1.20;1.10;;;10.50;60.90;;;;;;5096193;28;20438;-72
2022/04/24 03:13:43;;;;;;;1.35;1.00;;;10.40;60.90;;;;;;5115567;28;20449;-72
2022/04/24 03:16:10;;;;;;;1.75;1.10;;;10.40;61.00;;;;;;5115176;28;20039;-72
2022/04/24 03:18:35;;;;;;;1.50;1.05;;;10.40;61.10;;;;;;5097132;28;20151;-72
2022/04/24 03:21:01;;;;;;;1.00;0.90;;;10.30;61.10;;;;;;5115128;28;20086;-72
2022/04/24 03:23:27;;;;;;;1.33;0.95;;;10.30;61.20;;;;;;5097631;28;20040;-72
2022/04/24 03:25:53;;;;;;;1.20;1.00;;;10.30;61.30;;;;;;5115603;28;20036;-72
2022/04/24 03:28:19;;;;;;;2.13;1.30;;;10.30;61.40;;;;;;5096907;28;20039;-72
2022/04/24 03:30:45;;;;;;;0.95;0.85;;;10.30;61.50;;;;;;5115470;28;20442;-72
2022/04/24 03:33:11;;;;;;;1.15;0.95;;;10.30;61.50;;;;;;5080284;28;20442;-72
2022/04/24 03:35:37;;;;;;;1.13;0.90;;;10.20;61.50;;;;;;5096700;28;20075;-72
2022/04/24 03:38:03;;;;;;;2.00;1.20;;;10.20;61.60;;;;;;5114924;28;20046;-72
2022/04/24 03:40:29;;;;;;;1.45;1.10;;;10.20;61.70;;;;;;5115208;28;20047;-72
2022/04/24 03:42:55;;;;;;;1.42;1.05;;;10.10;61.70;;;;;;5114860;28;20092;-73
2022/04/24 03:45:20;;;;;;;1.10;0.90;;;10.10;61.80;;;;;;5095716;28;20044;-72
2022/04/24 03:47:47;;;;;;;2.30;1.00;;;10.20;61.90;;;;;;5115586;28;20089;-72
2022/04/24 03:50:13;;;;;;;1.83;0.98;;;10.10;61.90;;;;;;5096553;28;20055;-72
2022/04/24 03:52:39;;;;;;;1.48;0.82;;;10.10;62.00;;;;;;5114503;28;20048;-72
2022/04/24 03:55:06;;;;;;;2.05;1.20;;;10.20;62.00;;;;;;5114540;28;20042;-72
2022/04/24 03:57:33;;;;;;;2.08;1.02;;;10.00;62.00;;;;;;5095494;28;20040;-72
2022/04/24 03:59:59;;;;;;;1.50;1.00;;;10.00;62.00;;;;;;5094416;28;20087;-73
2022/04/24 04:02:25;;;;;;;1.35;0.90;;;10.00;62.10;;;;;;5096436;28;20545;-72
2022/04/24 04:04:50;;;;;;;1.30;0.90;;;10.00;62.10;;;;;;5114879;28;20082;-72
2022/04/24 04:07:16;;;;;;;1.30;1.00;;;10.00;62.10;;;;;;5094816;28;20048;-72
2022/04/24 04:09:42;;;;;;;0.98;0.80;;;10.00;62.20;;;;;;5095888;28;20378;-72
2022/04/24 04:12:09;;;;;;;1.27;0.90;;;9.90;62.20;;;;;;5114482;28;20043;-72
2022/04/24 04:14:34;;;;;;;1.52;0.90;;;9.90;62.30;;;;;;5114700;28;20043;-72
2022/04/24 04:17:00;;;;;;;1.35;0.85;;;9.80;62.30;;;;;;5110637;28;20366;-73
2022/04/24 04:19:26;;;;;;;0.95;0.90;;;9.80;62.40;;;;;;5114055;28;20508;-72
2022/04/24 04:21:51;;;;;;;0.88;0.70;;;9.80;62.40;;;;;;5114676;28;20035;-72
2022/04/24 04:24:17;;;;;;;1.80;0.90;;;9.80;62.50;;;;;;5096655;28;20039;-72
2022/04/24 04:26:44;;;;;;;1.60;1.00;;;9.70;62.50;;;;;;5095687;28;20070;-72
2022/04/24 04:29:09;;;;;;;1.50;0.90;;;9.80;62.60;;;;;;5079015;28;20374;-72
2022/04/24 04:31:35;;;;;;;0.85;0.82;;;9.70;62.60;;;;;;5096098;28;20050;-72
2022/04/24 04:34:01;;;;;;;0.82;0.73;;;9.70;62.60;;;;;;5114881;28;20044;-72
2022/04/24 04:36:26;;;;;;;1.20;0.88;;;9.70;62.60;;;;;;5079463;28;20039;-72
2022/04/24 04:38:52;;;;;;;1.30;1.00;;;9.70;62.70;;;;;;5114211;28;20401;-72
2022/04/24 04:41:18;;;;;;;1.02;0.82;;;9.70;62.80;;;;;;5094022;28;20039;-73
2022/04/24 04:43:44;;;;;;;1.08;0.90;;;9.60;62.90;;;;;;5114360;28;20396;-72
2022/04/24 04:46:09;;;;;;;0.95;0.80;;;9.60;62.90;;;;;;5113968;28;20134;-72
2022/04/24 04:48:35;;;;;;;1.20;1.00;;;9.60;62.90;;;;;;5094653;28;20040;-72
2022/04/24 04:51:01;;;;;;;0.73;0.63;;;9.60;63.00;;;;;;5113997;28;20039;-72
2022/04/24 04:53:27;;;;;;;1.45;1.08;;;9.60;63.00;;;;;;5096308;28;20047;-72
2022/04/24 04:55:52;;;;;;;2.10;0.90;;;9.60;63.10;;;;;;5114176;28;20092;-73
2022/04/24 04:58:18;;;;;;;1.13;0.90;;;9.50;63.00;;;;;;5113775;28;20032;-72
2022/04/24 05:00:44;;;;;;;1.50;0.73;;;9.60;63.20;;;;;;5114148;28;20046;-73
2022/04/24 05:03:10;;;;;;;1.48;1.08;;;9.50;63.10;;;;;;5113801;28;20554;-73
2022/04/24 05:05:35;;;;;;;1.60;1.00;;;9.50;63.10;;;;;;5113727;28;20085;-72
2022/04/24 05:08:01;;;;;;;1.10;0.90;;;9.50;63.20;;;;;;5113621;28;20529;-73
2022/04/24 05:10:27;;;;;;;1.40;1.00;;;9.50;63.20;;;;;;5113691;28;20393;-73
2022/04/24 05:12:52;;;;;;;1.20;1.00;;;9.50;63.20;;;;;;5095726;28;20172;-73
2022/04/24 05:15:21;;;;;;;1.45;1.08;;;9.40;63.20;;;;;;5114097;28;20063;-73
2022/04/24 05:17:47;;;;;;;1.60;1.00;;;9.50;63.20;;;;;;5096038;28;20146;-73
2022/04/24 05:20:12;;;;;;;1.00;0.90;;;9.50;63.20;;;;;;5113451;28;20043;-73
2022/04/24 05:22:40;;;;;;;0.90;0.70;;;9.50;63.20;;;;;;5113863;28;20603;-73
2022/04/24 05:25:07;;;;;;;1.00;0.85;;;9.50;63.10;;;;;;5096014;28;20121;-73
2022/04/24 05:27:33;;;;;;;0.80;0.80;;;9.60;63.10;;;;;;5095421;28;20052;-73
2022/04/24 05:29:58;;;;;;;1.30;1.00;;;9.50;63.00;;;;;;5113627;28;20393;-73
2022/04/24 05:32:24;;;;;;;1.35;0.90;;;9.60;63.10;;;;;;5093951;28;20047;-72
2022/04/24 05:34:50;;;;;;;2.13;1.02;;;9.50;63.00;;;;;;5113456;28;20088;-73
2022/04/24 05:37:16;;;;;;;1.67;1.20;;;9.60;63.10;;;;;;5113200;28;20523;-73
2022/04/24 05:39:42;;;;;;;0.98;0.88;;;9.60;63.70;;;;;;5113136;28;20100;-73
2022/04/24 05:42:08;;;;;;;1.15;0.82;;;9.60;63.00;;;;;;5112950;28;20039;-73
2022/04/24 05:44:35;;;;;;;1.33;0.98;;;9.60;62.90;;;;;;5113070;28;20039;-73
2022/04/24 05:47:01;;;;;;;2.08;0.90;;;9.60;62.90;;;;;;5112883;28;20043;-73
2022/04/24 05:49:26;;;;;;;1.20;1.00;;;9.70;62.90;;;;;;5113133;28;20039;-73
2022/04/24 05:51:52;;;;;;;1.70;1.08;;;9.70;62.80;;;;;;5112950;28;20493;-73
2022/04/24 05:54:18;;;;;;;1.63;1.00;;;9.80;62.80;;;;;;5093888;28;20126;-73
2022/04/24 05:56:43;;;;;;;1.20;1.00;;;9.70;62.70;;;;;;5113004;28;20123;-73
2022/04/24 05:59:09;;;;;;;0.98;0.82;;;9.80;62.70;;;;;;5112800;28;20084;-73
2022/04/24 06:01:35;;;;;;;0.88;0.85;;;9.80;62.60;;;;;;5076923;28;20035;-74
2022/04/24 06:04:01;;;;;;;1.15;0.95;;;9.80;62.60;;;;;;5113020;28;20036;-73
2022/04/24 06:06:29;;;;;;;1.35;1.00;;;9.90;62.50;;;;;;5112894;28;20035;-73
2022/04/24 06:08:55;;;;;;;1.30;1.10;;;9.90;62.40;;;;;;5113094;28;20024;-74
2022/04/24 06:11:20;;;;;;;0.80;0.80;;;9.90;62.40;;;;;;5094838;28;20038;-74
2022/04/24 06:13:47;;;;;;;1.10;0.90;;;10.00;62.40;;;;;;5078030;28;20404;-73
2022/04/24 06:16:15;;;;;;;0.75;0.75;;;10.10;62.40;;;;;;5113015;28;20039;-74
2022/04/24 06:18:41;;;;;;;1.00;0.80;;;10.10;62.20;;;;;;5060902;28;20111;-73
2022/04/24 06:21:07;;;;;;;1.65;0.85;;;10.10;62.10;;;;;;5094752;28;20039;-74
2022/04/24 06:23:33;;;;;;;0.80;0.80;;;10.20;62.10;;;;;;5113076;28;20063;-73
2022/04/24 06:25:59;;;;;;;1.00;0.90;;;10.20;62.00;;;;;;5112906;28;20074;-73
2022/04/24 06:28:25;;;;;;;1.02;0.82;;;10.30;61.90;;;;;;5077473;28;20056;-73
2022/04/24 06:30:51;;;;;;;1.08;0.90;;;10.40;61.90;;;;;;5112304;28;20039;-74
2022/04/24 06:33:17;;;;;;;1.63;1.05;;;10.40;61.80;;;;;;5094465;28;20032;-73
2022/04/24 06:35:45;;;;;;;1.05;0.85;;;10.50;61.80;;;;;;5112239;28;20148;-73
2022/04/24 06:38:11;;;;;;;1.02;0.80;;;10.50;61.60;;;;;;5112196;28;20111;-73
2022/04/24 06:40:38;;;;;;;1.70;0.90;;;10.50;61.60;;;;;;5112703;28;20039;-74
2022/04/24 06:43:05;;;;;;;0.80;0.80;;;10.60;61.60;;;;;;5096335;28;20497;-73
2022/04/24 06:45:35;;;;;;;0.77;0.70;;;10.70;61.50;;;;;;5115894;28;20036;-74
2022/04/24 06:48:04;;;;;;;1.23;0.70;;;10.70;61.50;;;;;;5117083;28;20040;-73
2022/04/24 06:50:32;;;;;;;0.63;0.63;;;10.70;61.40;;;;;;5098169;28;20043;-73
2022/04/24 06:53:03;;;;;;;0.65;0.65;;;10.80;61.50;;;;;;5098384;28;20047;-74
2022/04/24 06:55:29;;;;;;;;;;;10.80;61.40;;;;;;5117036;28;20504;-73
2022/04/24 06:57:55;;;;;;;1.00;0.80;;;10.80;61.30;;;;;;5098510;28;19919;-73
2022/04/24 07:00:23;;;;;;;1.55;0.68;;;11.00;61.20;;;;;;5116060;28;20036;-73
2022/04/24 07:02:49;;;;;;;1.42;0.85;;;11.10;61.20;;;;;;5097463;28;20043;-74
2022/04/24 07:05:16;;;;;;;0.93;0.80;;;11.10;61.10;;;;;;5116203;28;20135;-74
2022/04/24 07:07:42;;;;;;;1.15;0.88;;;11.10;60.90;;;;;;5116169;28;20114;-74
2022/04/24 07:10:10;;;;;;;0.75;0.70;;;11.20;60.90;;;;;;5115602;28;20071;-74
2022/04/24 07:12:53;;;;;;;0.73;0.70;;;11.20;60.90;;;;;;5097723;28;20071;-74
2022/04/24 07:15:20;;;;;;;0.80;0.70;;;11.30;61.00;;;;;;5097283;28;20122;-74
2022/04/24 07:17:46;;;;;;;0.82;0.70;;;11.20;60.90;;;;;;5097208;28;20118;-74
2022/04/24 07:20:15;;;;;;;0.88;0.63;;;11.40;61.00;;;;;;5115370;28;20040;-74
2022/04/24 07:22:53;;;;;;;2.38;0.82;;;11.40;60.90;;;;;;5097250;28;20036;-74
2022/04/24 07:25:24;;;;;;;1.42;0.80;;;11.50;60.90;;;;;;5115235;28;20115;-74
2022/04/24 07:27:49;;;;;;;0.88;0.68;;;11.50;60.70;;;;;;5115928;28;20031;-74
2022/04/24 07:30:17;;;;;;;1.38;0.70;;;11.60;60.70;;;;;;5115333;28;20037;-74
2022/04/24 07:32:53;;;;;;;0.57;0.50;;;11.70;60.70;;;;;;5115189;28;20118;-74
2022/04/24 07:35:21;;;;;;;0.95;0.93;;;11.70;60.60;;;;;;5115998;28;20071;-74
2022/04/24 07:37:48;;;;;;;0.68;0.68;;;11.80;60.60;;;;;;5115662;28;20103;-74
2022/04/24 07:40:16;;;;;;;0.93;0.80;;;11.80;60.50;;;;;;5097010;28;20047;-73
2022/04/24 07:42:47;;;;;;;1.52;0.90;;;11.90;60.40;;;;;;5115362;28;20046;-73
2022/04/24 07:45:18;;;;;;;0.95;0.73;;;12.00;60.30;;;;;;5115216;28;20051;-73
2022/04/24 07:47:45;;;;;;;1.27;0.85;;;12.00;60.80;;;;;;5115066;28;20065;-74
2022/04/24 07:50:12;;;;;;;1.00;0.90;;;12.10;60.00;;;;;;5115432;28;20039;-74
2022/04/24 07:52:38;;;;;;;0.85;0.70;;;12.30;60.00;;;;;;5096601;28;20048;-74
2022/04/24 07:55:04;;;;;;;0.60;0.60;;;12.40;59.80;;;;;;5113775;28;20035;-74
2022/04/24 07:57:30;;;;;;;0.73;0.60;;;12.60;59.70;;;;;;5097011;28;20047;-74
2022/04/24 07:59:57;;;;;;;0.80;0.80;;;12.80;59.40;;;;;;5094867;28;20044;-74
2022/04/24 08:02:23;;;;;;;0.70;0.70;;;12.90;59.10;;;;;;5096594;28;20092;-74
2022/04/24 08:04:48;;;;;;;1.00;0.90;;;13.10;58.90;;;;;;5114849;28;20039;-74
2022/04/24 08:07:15;;;;;;;1.08;0.90;;;13.30;58.70;;;;;;5114608;28;20034;-74
2022/04/24 08:09:42;;;;;;;1.00;0.90;;;13.40;58.50;;;;;;5114662;28;20044;-74
2022/04/24 08:12:08;;;;;;;1.00;0.90;;;13.60;58.40;;;;;;5096237;28;20043;-74
2022/04/24 08:14:34;;;;;;;0.88;0.75;;;13.70;58.30;;;;;;5114888;28;20123;-74
2022/04/24 08:16:59;;;;;;;1.25;0.73;;;13.90;58.10;;;;;;5114446;28;20059;-74
2022/04/24 08:19:25;;;;;;;1.10;1.00;;;14.10;57.90;;;;;;5094549;28;20127;-74
2022/04/24 08:21:51;;;;;;;1.35;0.90;;;14.30;57.70;;;;;;5095753;28;20064;-74
2022/04/24 08:24:17;;;;;;;0.73;0.68;;;14.40;57.50;;;;;;5114379;28;20077;-74
2022/04/24 08:26:42;;;;;;;0.77;0.73;;;14.60;57.50;;;;;;5096427;28;20044;-74
2022/04/24 08:29:08;;;;;;;0.70;0.70;;;14.70;57.40;;;;;;5114824;28;20035;-75
2022/04/24 08:31:34;;;;;;;1.10;1.00;;;14.90;57.30;;;;;;5114518;28;20067;-74
2022/04/24 08:34:00;;;;;;;1.33;0.98;;;15.00;57.10;;;;;;5094769;28;20043;-75
2022/04/24 08:36:25;;;;;;;1.40;1.20;;;15.20;57.00;;;;;;5096517;28;20491;-73
2022/04/24 08:38:51;;;;;;;1.20;0.95;;;15.30;56.90;;;;;;5114275;28;20051;-74
2022/04/24 08:41:21;;;;;;;1.13;1.00;;;15.30;56.90;;;;;;5114609;28;20039;-74
2022/04/24 08:43:47;;;;;;;1.27;1.05;;;15.40;56.90;;;;;;5094562;28;20050;-74
2022/04/24 08:46:14;;;;;;;1.10;0.90;;;15.60;56.90;;;;;;5114484;28;20028;-74
2022/04/24 08:48:41;;;;;;;1.40;1.20;;;15.70;56.80;;;;;;5095491;28;20043;-73
2022/04/24 08:51:10;;;;;;;1.10;1.00;;;15.90;56.70;;;;;;5114270;28;20074;-73
2022/04/24 08:53:39;;;;;;;1.50;1.10;;;16.00;56.60;;;;;;5114387;28;20039;-74
2022/04/24 08:56:05;;;;;;;1.33;0.98;;;16.10;56.50;;;;;;5077439;28;20036;-74
2022/04/24 08:58:32;;;;;;;0.85;0.77;;;16.20;56.40;;;;;;5114400;28;20043;-73
2022/04/24 09:00:57;;;;;;;0.93;0.88;;;16.30;56.40;;;;;;5095652;28;20134;-74
2022/04/24 09:03:24;;;;;;;1.05;0.85;;;16.40;56.30;;;;;;5113761;28;20071;-74
2022/04/24 09:05:49;;;;;;;0.80;0.80;;;16.50;56.30;;;;;;5095559;28;20043;-74
2022/04/24 09:08:15;;;;;;;2.00;1.33;;;16.60;56.30;;;;;;5114000;28;20042;-73
2022/04/24 09:10:52;;;;;;;1.73;1.13;;;16.70;56.30;;;;;;5113880;28;20046;-74
2022/04/24 09:14:14;;;;;;;1.05;1.00;;;16.80;56.20;;;;;;5114419;28;20097;-73
2022/04/24 09:16:34;;;;;;;1.00;1.00;;;16.90;56.20;;;;;;5113419;28;20040;-74
2022/04/24 09:19:00;;;;;;;1.00;0.90;;;17.00;56.20;;;;;;5113829;28;20040;-74
2022/04/24 09:21:26;;;;;;;1.10;1.00;;;17.10;56.20;;;;;;5113371;28;20503;-74
2022/04/24 09:23:52;;;;;;;1.52;1.10;;;17.10;56.00;;;;;;5113839;28;20039;-74
2022/04/24 09:26:17;;;;;;;1.70;1.25;;;17.20;56.10;;;;;;5113538;28;20028;-74
2022/04/24 09:28:43;;;;;;;1.77;1.10;;;17.20;56.10;;;;;;5094568;28;20035;-73
2022/04/24 09:31:10;;;;;;;1.23;1.13;;;17.30;56.00;;;;;;5113244;28;20031;-73
2022/04/24 09:33:38;;;;;;;1.73;0.90;;;17.30;55.90;;;;;;5095790;28;20492;-73
2022/04/24 09:36:03;;;;;;;1.98;1.40;;;17.40;55.90;;;;;;5113921;28;20032;-73
2022/04/24 09:38:29;;;;;;;1.98;1.15;;;17.50;55.80;;;;;;5095648;28;20094;-73
2022/04/24 09:40:55;;;;;;;1.98;1.27;;;17.50;55.80;;;;;;5094923;28;20034;-73
2022/04/24 09:43:21;;;;;;;1.77;1.20;;;17.50;55.70;;;;;;5113174;28;20476;-74
2022/04/24 09:45:49;;;;;;;1.30;1.02;;;17.60;55.70;;;;;;5094846;28;20043;-73
2022/04/24 09:48:17;;;;;;;1.63;1.15;;;17.60;55.70;;;;;;5094790;28;20118;-74
2022/04/24 09:50:43;;;;;;;1.63;1.00;;;17.70;55.80;;;;;;5113602;28;20071;-73
2022/04/24 09:53:17;;;;;;;1.33;1.02;;;17.70;55.70;;;;;;5112576;28;20036;-73
2022/04/24 09:55:44;;;;;;;1.50;1.20;;;17.80;55.60;;;;;;5112963;28;20071;-73
2022/04/24 09:58:12;;;;;;;1.73;1.40;;;17.90;55.50;;;;;;5113103;28;20051;-73
2022/04/24 10:00:38;;;;;;;1.55;1.10;;;17.90;55.30;;;;;;5113348;28;20040;-74
2022/04/24 10:03:03;;;;;;;1.65;1.30;;;17.90;55.40;;;;;;5094561;28;20527;-74
2022/04/24 10:05:31;;;;;;;1.80;1.30;;;17.90;55.30;;;;;;5077624;28;20074;-73
2022/04/24 10:07:59;;;;;;;1.42;1.33;;;17.90;55.30;;;;;;5113148;28;20557;-73
2022/04/24 10:10:24;;;;;;;1.20;1.10;;;17.90;55.20;;;;;;5112671;28;20044;-73
2022/04/24 10:12:51;;;;;;;1.20;1.10;;;18.00;55.20;;;;;;5094656;28;20069;-73
2022/04/24 10:15:20;;;;;;;1.30;1.10;;;18.00;55.20;;;;;;5077812;28;20126;-73
2022/04/24 10:18:18;;;;;;;1.15;1.02;;;18.00;55.10;;;;;;5112012;28;20036;-74
2022/04/24 10:21:20;;;;;;;1.05;0.93;;;18.10;55.00;;;;;;5109915;28;20040;-74
2022/04/24 10:23:46;;;;;;;1.55;1.10;;;18.10;54.90;;;;;;5097510;28;20126;-74
2022/04/24 10:26:17;;;;;;;1.30;1.20;;;18.10;54.90;;;;;;5113126;28;20074;-73
2022/04/24 10:28:46;;;;;;;1.50;1.20;;;18.10;54.80;;;;;;5113103;28;20139;-73
2022/04/24 10:31:13;;;;;;;1.40;1.13;;;18.10;54.90;;;;;;5094545;28;20067;-74
2022/04/24 10:33:51;;;;;;;1.67;1.00;;;18.10;54.90;;;;;;5113064;28;20092;-73
2022/04/24 10:36:17;;;;;;;1.55;1.20;;;18.10;54.70;;;;;;5112524;28;20035;-74
2022/04/24 10:38:54;;;;;;;1.50;1.20;;;18.20;54.60;;;;;;5112405;28;20442;-73
2022/04/24 10:41:23;;;;;;;1.42;1.20;;;18.20;54.40;;;;;;5076588;28;20397;-73
2022/04/24 10:43:54;;;;;;;1.00;0.90;;;18.30;54.50;;;;;;5094310;28;20063;-73
2022/04/24 10:46:26;;;;;;;1.23;1.02;;;18.30;54.30;;;;;;5112110;28;20040;-73
2022/04/24 10:48:53;;;;;;;1.30;1.20;;;18.30;54.10;;;;;;5112701;28;20446;-73
2022/04/24 10:51:31;;;;;;;1.10;1.00;;;18.30;54.00;;;;;;5093282;28;20521;-73
2022/04/24 10:54:00;;;;;;;1.98;1.35;;;18.30;54.00;;;;;;5112529;28;20048;-73
2022/04/24 10:56:27;;;;;;;2.03;1.20;;;18.20;53.90;;;;;;5112188;28;20077;-73
2022/04/24 10:58:53;;;;;;;1.13;1.02;;;18.20;54.00;;;;;;5112562;28;20055;-74
2022/04/24 11:01:19;;;;;;;1.50;1.20;;;18.20;53.90;;;;;;5093714;28;20040;-73
2022/04/24 11:03:46;;;;;;;1.15;1.05;;;18.40;54.00;;;;;;5112585;28;20484;-73
2022/04/24 11:06:23;;;;;;;2.17;1.15;;;18.50;53.80;;;;;;5112375;28;20127;-74
2022/04/24 11:08:49;;;;;;;1.92;1.10;;;18.60;53.40;;;;;;5093724;28;20036;-72
2022/04/24 11:11:16;;;;;;;1.30;1.20;;;18.60;53.20;;;;;;5112143;28;20477;-73
2022/04/24 11:13:42;;;;;;;1.77;1.25;;;18.60;53.30;;;;;;5112025;28;20032;-73
2022/04/24 11:16:08;;;;;;;2.63;1.60;;;18.50;53.20;;;;;;5112421;28;20113;-73
2022/04/24 11:18:35;;;;;;;1.30;1.15;;;18.40;53.10;;;;;;5093765;28;20075;-73
2022/04/24 11:21:04;;;;;;;1.85;1.23;;;18.40;53.10;;;;;;5094147;28;20434;-73
2022/04/24 11:23:35;;;;;;;1.00;0.90;;;18.40;53.00;;;;;;5112226;28;20047;-73
2022/04/24 11:26:02;;;;;;;1.00;0.90;;;18.40;53.10;;;;;;5093956;28;20047;-73
2022/04/24 11:28:37;;;;;;;1.52;1.10;;;18.50;52.90;;;;;;5112470;28;20032;-73
2022/04/24 11:31:15;;;;;;;1.08;1.00;;;18.50;52.60;;;;;;5097259;28;20134;-73
2022/04/24 11:33:56;;;;;;;1.45;1.00;;;18.60;52.50;;;;;;5115539;28;21234;-73
2022/04/24 11:36:31;;;;;;;1.15;1.00;;;18.60;52.50;;;;;;5115116;28;20035;-74
2022/04/24 11:38:59;;;;;;;1.15;1.05;;;18.60;52.50;;;;;;5115083;28;20032;-74
2022/04/24 11:41:29;;;;;;;0.98;0.90;;;18.60;52.40;;;;;;5115504;28;20043;-73
2022/04/24 11:52:10;;;;;;;1.00;0.90;;;18.80;51.80;;;;;;5114650;28;20403;-74
2022/04/24 11:54:38;;;;;;;1.25;1.15;;;18.70;52.00;;;;;;5114833;28;20284;-74
2022/04/24 11:57:04;;;;;;;4.53;1.15;;;18.70;51.90;;;;;;5079990;28;20069;-74
2022/04/24 11:59:35;;;;;;;1.20;1.10;;;18.80;51.80;;;;;;5115083;28;20051;-74
2022/04/24 12:02:00;;;;;;;0.88;0.80;;;18.80;51.50;;;;;;5096527;28;20135;-74
2022/04/24 12:04:31;;;;;;;1.38;1.02;;;18.80;51.40;;;;;;5115025;28;20172;-73
2022/04/24 12:07:06;;;;;;;1.73;1.13;;;18.50;51.60;;;;;;5115652;28;20088;-74
2022/04/24 12:09:32;;;;;;;0.98;0.90;;;18.40;51.80;;;;;;5096734;28;20034;-74
2022/04/24 12:12:08;;;;;;;0.73;0.73;;;18.50;51.80;;;;;;5114567;28;20044;-74
2022/04/24 12:14:35;;;;;;;0.80;0.80;;;18.60;51.50;;;;;;5114606;28;20046;-74
2022/04/24 12:17:04;;;;;;;0.75;0.70;;;18.80;51.30;;;;;;5114597;28;20052;-73
2022/04/24 12:19:30;;;;;;;1.70;1.15;;;18.90;51.00;;;;;;5096558;28;20039;-74
2022/04/24 12:21:55;;;;;;;1.08;1.00;;;18.80;50.80;;;;;;5114067;28;20051;-74
2022/04/24 12:24:21;;;;;;;1.20;0.98;;;18.60;51.00;;;;;;5114628;28;20044;-74
2022/04/24 12:26:50;;;;;;;1.15;1.00;;;18.60;51.50;;;;;;5079324;28;20066;-73
2022/04/24 12:29:17;;;;;;;0.98;0.82;;;18.60;51.30;;;;;;5114338;28;20378;-73
2022/04/24 12:31:43;;;;;;;1.10;0.70;;;18.60;51.30;;;;;;5114595;28;20035;-74
2022/04/24 12:34:08;;;;;;;1.17;0.90;;;18.70;51.20;;;;;;5114546;28;20048;-74
2022/04/24 12:36:34;;;;;;;1.25;0.68;;;18.80;51.10;;;;;;5114010;28;20050;-73
2022/04/24 12:39:04;;;;;;;0.98;0.90;;;19.00;50.90;;;;;;5095650;28;20050;-74
2022/04/24 12:41:31;;;;;;;1.40;0.98;;;19.10;50.70;;;;;;5094525;28;20040;-74
2022/04/24 12:43:59;;;;;;;0.68;0.68;;;19.20;50.60;;;;;;5062258;28;20043;-74
2022/04/24 12:46:25;;;;;;;0.70;0.70;;;19.10;50.60;;;;;;5114050;28;20040;-74
2022/04/24 12:48:53;;;;;;;0.93;0.77;;;19.00;50.90;;;;;;5114138;28;20044;-73
2022/04/24 12:51:21;;;;;;;0.63;0.60;;;19.10;51.00;;;;;;5095602;28;20035;-74
2022/04/24 12:53:48;;;;;;;1.10;0.88;;;19.00;51.00;;;;;;5114401;28;20094;-74
2022/04/24 12:56:14;;;;;;;1.05;0.90;;;18.80;51.00;;;;;;5114360;28;20039;-73